createdAt,value
2023-05-17T00:00:24.027Z,1.80
2023-05-17T00:02:52.760Z,1.77
2023-05-17T00:05:21.389Z,1.90
2023-05-17T00:07:52.099Z,2.22
2023-05-17T00:10:22.272Z,1.98
2023-05-17T00:12:50.877Z,1.90
2023-05-17T00:15:19.627Z,1.60
2023-05-17T00:17:48.243Z,1.73
2023-05-17T00:20:16.952Z,1.77
2023-05-17T00:22:47.305Z,2.33
2023-05-17T00:25:15.931Z,2.17
2023-05-17T00:27:45.885Z,2.42
2023-05-17T00:30:14.777Z,2.40
2023-05-17T00:32:44.655Z,2.05
2023-05-17T00:35:13.403Z,2.55
2023-05-17T00:37:43.407Z,2.28
2023-05-17T00:40:13.948Z,2.30
2023-05-17T00:42:42.704Z,2.10
2023-05-17T00:45:13.010Z,2.20
2023-05-17T00:47:42.750Z,2.38
2023-05-17T00:50:12.936Z,2.10
2023-05-17T00:52:41.708Z,2.60
2023-05-17T00:55:10.660Z,2.40
2023-05-17T00:57:39.959Z,2.75
2023-05-17T01:00:09.768Z,2.97
2023-05-17T01:02:39.768Z,3.25
2023-05-17T01:05:10.156Z,2.55
2023-05-17T01:07:38.740Z,3.00
2023-05-17T01:10:08.689Z,3.17
2023-05-17T01:12:51.292Z,2.78
2023-05-17T01:15:26.542Z,2.95
2023-05-17T01:18:08.666Z,2.75
2023-05-17T01:20:39.529Z,2.90
2023-05-17T01:23:25.747Z,2.60
2023-05-17T01:26:00.835Z,2.70
2023-05-17T01:28:32.745Z,3.05
2023-05-17T01:31:04.993Z,2.80
2023-05-17T01:33:34.844Z,2.60
2023-05-17T01:36:03.554Z,2.90
2023-05-17T01:38:32.127Z,2.85
2023-05-17T01:41:14.930Z,2.65
2023-05-17T01:43:49.031Z,2.75
2023-05-17T01:46:25.937Z,2.92
2023-05-17T01:49:07.295Z,3.22
2023-05-17T01:51:47.181Z,3.17
2023-05-17T01:54:21.583Z,3.20
2023-05-17T01:56:56.769Z,2.80
2023-05-17T01:59:27.818Z,3.03
2023-05-17T02:02:03.931Z,2.92
2023-05-17T02:04:32.765Z,3.17
2023-05-17T02:07:03.927Z,2.90
2023-05-17T02:09:32.981Z,3.17
2023-05-17T02:12:01.590Z,3.35
2023-05-17T02:14:31.505Z,2.90
2023-05-17T02:17:00.721Z,3.38
2023-05-17T02:19:29.555Z,2.97
2023-05-17T02:21:58.257Z,2.85
2023-05-17T02:24:27.033Z,3.13
2023-05-17T02:26:55.914Z,3.10
2023-05-17T02:29:24.587Z,3.10
2023-05-17T02:31:55.576Z,2.75
2023-05-17T02:34:24.323Z,2.80
2023-05-17T02:36:53.083Z,2.85
2023-05-17T02:39:21.690Z,2.60
2023-05-17T02:41:50.278Z,3.03
2023-05-17T02:44:18.826Z,2.83
2023-05-17T02:46:47.451Z,2.92
2023-05-17T02:49:17.497Z,3.00
2023-05-17T02:51:46.284Z,2.70
2023-05-17T02:54:14.894Z,3.17
2023-05-17T02:56:43.922Z,3.33
2023-05-17T02:59:12.713Z,3.20
2023-05-17T03:01:43.695Z,3.15
2023-05-17T03:04:12.534Z,3.28
2023-05-17T03:06:43.712Z,3.45
2023-05-17T03:09:12.397Z,3.22
2023-05-17T03:11:41.526Z,3.42
2023-05-17T03:14:17.392Z,3.20
2023-05-17T03:16:45.939Z,3.38
2023-05-17T03:19:15.614Z,3.42
2023-05-17T03:21:46.916Z,3.60
2023-05-17T03:24:15.871Z,4.00
2023-05-17T03:26:44.672Z,3.28
2023-05-17T03:29:14.338Z,3.17
2023-05-17T03:31:45.333Z,3.40
2023-05-17T03:34:15.242Z,3.58
2023-05-17T03:36:45.944Z,3.45
2023-05-17T03:39:14.759Z,4.10
2023-05-17T03:41:44.337Z,3.90
2023-05-17T03:44:12.978Z,4.15
2023-05-17T03:46:41.672Z,3.38
2023-05-17T03:49:11.417Z,3.97
2023-05-17T03:51:40.788Z,3.83
2023-05-17T03:54:11.198Z,3.88
2023-05-17T03:56:39.882Z,4.47
2023-05-17T03:59:08.574Z,4.45
2023-05-17T04:01:37.697Z,4.45
2023-05-17T04:04:06.933Z,4.03
2023-05-17T04:06:35.735Z,4.75
2023-05-17T04:09:05.425Z,3.70
2023-05-17T04:11:35.373Z,4.00
2023-05-17T04:14:04.113Z,4.50
2023-05-17T04:16:32.853Z,4.43
2023-05-17T04:19:02.033Z,4.72
2023-05-17T04:21:32.218Z,5.05
2023-05-17T04:24:00.926Z,4.63
2023-05-17T04:26:30.687Z,4.63
2023-05-17T04:29:01.396Z,4.07
2023-05-17T04:31:30.147Z,5.32
2023-05-17T04:33:58.853Z,5.05
2023-05-17T04:36:27.784Z,4.90
2023-05-17T04:38:57.308Z,5.05
2023-05-17T04:41:29.393Z,5.13
2023-05-17T04:43:58.564Z,4.88
2023-05-17T04:46:34.415Z,4.85
2023-05-17T04:49:03.963Z,5.60
2023-05-17T04:51:33.182Z,4.93
2023-05-17T04:54:03.239Z,4.93
2023-05-17T04:56:33.252Z,4.78
2023-05-17T04:59:02.654Z,5.55
2023-05-17T05:01:31.918Z,5.85
2023-05-17T05:04:06.801Z,6.05
2023-05-17T05:06:40.824Z,6.00
2023-05-17T05:09:10.046Z,5.72
2023-05-17T05:11:40.474Z,5.90
2023-05-17T05:14:09.297Z,5.43
2023-05-17T05:16:38.086Z,5.65
2023-05-17T05:19:09.439Z,5.10
2023-05-17T05:21:38.829Z,4.93
2023-05-17T05:24:08.863Z,5.47
2023-05-17T05:26:37.448Z,5.60
2023-05-17T05:29:07.101Z,6.10
2023-05-17T05:31:35.872Z,6.38
2023-05-17T05:34:07.533Z,6.60
2023-05-17T05:36:36.224Z,7.05
2023-05-17T05:39:06.360Z,6.43
2023-05-17T05:41:36.648Z,7.30
2023-05-17T05:44:05.653Z,6.40
2023-05-17T05:46:34.378Z,7.13
2023-05-17T05:49:05.431Z,7.97
2023-05-17T05:51:36.610Z,7.40
2023-05-17T05:54:05.312Z,7.40
2023-05-17T05:56:33.861Z,7.53
2023-05-17T05:59:02.446Z,7.32
2023-05-17T06:01:31.442Z,7.25
2023-05-17T06:04:00.027Z,7.85
2023-05-17T06:06:28.684Z,7.50
2023-05-17T06:08:59.785Z,8.52
2023-05-17T06:11:28.612Z,7.90
2023-05-17T06:13:57.197Z,7.22
2023-05-17T06:16:25.933Z,8.05
2023-05-17T06:18:54.626Z,8.95
2023-05-17T06:21:23.352Z,9.45
2023-05-17T06:23:52.308Z,8.30
2023-05-17T06:26:22.328Z,8.77
2023-05-17T06:28:51.055Z,9.52
2023-05-17T06:31:21.115Z,9.40
2023-05-17T06:33:49.858Z,9.05
2023-05-17T06:36:18.517Z,9.05
2023-05-17T06:38:47.180Z,9.43
2023-05-17T06:41:15.826Z,10.27
2023-05-17T06:43:46.620Z,10.50
2023-05-17T06:46:15.263Z,11.13
2023-05-17T06:48:44.061Z,12.00
2023-05-17T06:51:12.800Z,12.75
2023-05-17T06:53:41.452Z,11.90
2023-05-17T06:56:10.004Z,12.10
2023-05-17T06:58:38.592Z,13.27
2023-05-17T07:01:08.985Z,14.93
2023-05-17T07:03:37.798Z,16.05
2023-05-17T07:06:06.718Z,17.98
2023-05-17T07:08:35.385Z,17.42
2023-05-17T07:11:04.321Z,17.95
2023-05-17T07:13:33.043Z,17.05
2023-05-17T07:16:01.606Z,18.35
2023-05-17T07:18:31.735Z,17.27
2023-05-17T07:21:02.850Z,19.50
2023-05-17T07:23:34.409Z,17.77
2023-05-17T07:26:03.190Z,17.73
2023-05-17T07:28:31.922Z,17.75
2023-05-17T07:31:00.538Z,16.65
2023-05-17T07:33:29.329Z,15.40
2023-05-17T07:35:59.316Z,15.50
2023-05-17T07:38:29.177Z,16.65
2023-05-17T07:40:57.833Z,16.27
2023-05-17T07:43:26.485Z,17.10
2023-05-17T07:45:55.058Z,14.60
2023-05-17T07:48:23.831Z,12.93
2023-05-17T07:50:52.638Z,12.30
2023-05-17T07:53:22.788Z,11.98
2023-05-17T07:55:52.043Z,11.40
2023-05-17T07:58:20.884Z,10.50
2023-05-17T08:00:49.705Z,10.32
2023-05-17T08:03:18.424Z,10.45
2023-05-17T08:05:47.182Z,9.50
2023-05-17T08:08:16.290Z,8.95
2023-05-17T08:10:46.498Z,8.32
2023-05-17T08:13:15.166Z,7.55
2023-05-17T08:15:43.868Z,5.85
2023-05-17T08:18:12.724Z,5.43
2023-05-17T08:20:41.662Z,5.93
2023-05-17T08:23:10.398Z,6.35
2023-05-17T08:25:39.051Z,5.78
2023-05-17T08:28:11.277Z,6.18
2023-05-17T08:30:39.891Z,5.22
2023-05-17T08:33:11.465Z,5.43
2023-05-17T08:35:40.170Z,5.57
2023-05-17T08:38:09.254Z,5.97
2023-05-17T08:40:37.940Z,5.82
2023-05-17T08:43:07.294Z,5.90
2023-05-17T08:45:37.920Z,5.78
2023-05-17T08:48:07.343Z,6.38
2023-05-17T08:50:36.289Z,5.93
2023-05-17T08:53:05.229Z,5.32
2023-05-17T08:55:34.824Z,6.90
2023-05-17T08:58:04.301Z,5.65
2023-05-17T09:00:34.950Z,6.55
2023-05-17T09:03:06.339Z,7.22
2023-05-17T09:05:36.306Z,6.57
2023-05-17T09:08:05.598Z,5.72
2023-05-17T09:10:34.233Z,5.50
2023-05-17T09:13:02.873Z,5.05
2023-05-17T09:15:34.245Z,4.95
2023-05-17T09:18:04.417Z,3.33
2023-05-17T09:20:35.090Z,2.28
2023-05-17T09:23:04.953Z,2.50
2023-05-17T09:25:33.681Z,2.80
2023-05-17T09:28:03.839Z,2.33
2023-05-17T09:30:34.235Z,2.13
2023-05-17T09:33:08.652Z,2.67
2023-05-17T09:35:39.181Z,2.30
2023-05-17T09:38:09.383Z,1.98
2023-05-17T09:40:41.611Z,1.75
2023-05-17T09:43:11.806Z,2.22
2023-05-17T09:45:41.199Z,2.30
2023-05-17T09:48:16.215Z,2.40
2023-05-17T09:50:47.210Z,2.15
2023-05-17T09:53:29.471Z,2.40
2023-05-17T09:55:59.834Z,2.10
2023-05-17T09:58:29.373Z,2.00
2023-05-17T10:01:01.626Z,1.90
2023-05-17T10:03:34.339Z,1.90
2023-05-17T10:06:05.369Z,2.70
2023-05-17T10:08:35.374Z,2.25
2023-05-17T10:11:08.985Z,2.40
2023-05-17T10:13:45.116Z,2.40
2023-05-17T10:16:14.296Z,2.22
2023-05-17T10:18:44.937Z,2.50
2023-05-17T10:21:13.924Z,2.08
2023-05-17T10:23:44.364Z,2.38
2023-05-17T10:26:15.970Z,2.30
2023-05-17T10:28:46.213Z,2.08
2023-05-17T10:31:15.359Z,2.13
2023-05-17T10:33:48.501Z,2.53
2023-05-17T10:36:19.312Z,2.22
2023-05-17T10:38:48.836Z,2.67
2023-05-17T10:41:19.394Z,2.10
2023-05-17T10:43:49.694Z,2.78
2023-05-17T10:46:21.382Z,1.98
2023-05-17T10:48:52.515Z,2.80
2023-05-17T10:51:25.122Z,2.55
2023-05-17T10:54:09.265Z,4.35
2023-05-17T10:56:42.587Z,2.17
2023-05-17T10:59:22.809Z,2.47
2023-05-17T11:01:56.384Z,1.90
2023-05-17T11:04:28.060Z,2.15
2023-05-17T11:07:26.921Z,2.00
2023-05-17T11:09:57.045Z,1.90
2023-05-17T11:12:37.384Z,2.17
2023-05-17T11:15:10.801Z,2.70
2023-05-17T11:17:51.718Z,2.55
2023-05-17T11:20:35.041Z,2.17
2023-05-17T11:23:08.295Z,2.10
2023-05-17T11:25:38.767Z,1.75
2023-05-17T11:28:09.652Z,2.08
2023-05-17T11:30:43.581Z,1.95
2023-05-17T11:33:21.037Z,2.45
2023-05-17T11:36:06.225Z,2.00
2023-05-17T11:38:36.419Z,2.30
2023-05-17T11:43:50.804Z,2.83
2023-05-17T11:46:21.317Z,2.10
2023-05-17T11:48:53.601Z,2.10
2023-05-17T11:51:24.957Z,1.98
2023-05-17T11:53:56.801Z,2.28
2023-05-17T11:56:39.531Z,1.98
2023-05-17T11:59:12.116Z,1.83
2023-05-17T12:01:45.931Z,1.90
2023-05-17T12:04:14.747Z,1.98
2023-05-17T12:06:44.863Z,2.10
2023-05-17T12:09:17.832Z,1.92
2023-05-17T12:11:47.780Z,2.05
2023-05-17T12:14:18.315Z,2.00
2023-05-17T12:16:52.137Z,2.30
2023-05-17T12:19:22.255Z,2.13
2023-05-17T12:21:51.487Z,2.53
2023-05-17T12:24:21.536Z,2.58
2023-05-17T12:26:50.184Z,2.47
2023-05-17T12:29:23.120Z,2.10
2023-05-17T12:31:54.558Z,1.95
2023-05-17T12:34:23.608Z,1.85
2023-05-17T12:36:53.325Z,1.63
2023-05-17T12:39:24.769Z,2.20
2023-05-17T12:41:54.269Z,1.92
2023-05-17T12:44:23.261Z,1.98
2023-05-17T12:46:54.108Z,2.45
2023-05-17T12:49:23.403Z,2.17
2023-05-17T12:51:52.025Z,2.47
2023-05-17T12:54:29.604Z,1.98
2023-05-17T12:56:58.369Z,2.20
2023-05-17T12:59:29.076Z,2.20
2023-05-17T13:02:00.590Z,2.40
2023-05-17T13:04:33.394Z,2.30
2023-05-17T13:07:04.331Z,2.17
2023-05-17T13:09:36.430Z,2.30
2023-05-17T13:12:07.899Z,2.60
2023-05-17T13:14:38.817Z,2.67
2023-05-17T13:17:09.182Z,2.33
2023-05-17T13:19:40.298Z,2.78
2023-05-17T13:22:09.196Z,2.13
2023-05-17T13:24:40.734Z,2.35
2023-05-17T13:27:09.792Z,2.50
2023-05-17T13:29:40.897Z,2.13
2023-05-17T13:32:11.624Z,2.10
2023-05-17T13:34:41.651Z,2.00
2023-05-17T13:37:12.460Z,2.33
2023-05-17T13:39:43.276Z,2.38
2023-05-17T13:42:12.201Z,2.60
2023-05-17T13:44:41.116Z,2.50
2023-05-17T13:47:09.799Z,2.25
2023-05-17T13:49:38.434Z,2.58
2023-05-17T13:52:08.861Z,2.63
2023-05-17T13:54:39.128Z,2.20
2023-05-17T13:57:09.332Z,2.20
2023-05-17T13:59:38.021Z,2.17
2023-05-17T14:02:06.834Z,2.10
2023-05-17T14:04:35.980Z,2.10
2023-05-17T14:07:05.000Z,2.08
2023-05-17T14:09:34.625Z,2.08
2023-05-17T14:12:03.412Z,2.15
2023-05-17T14:14:33.417Z,2.60
2023-05-17T14:17:02.549Z,2.58
2023-05-17T14:19:31.533Z,2.25
2023-05-17T14:22:00.508Z,2.47
2023-05-17T14:24:29.165Z,2.15
2023-05-17T14:26:58.881Z,2.30
2023-05-17T14:29:27.547Z,2.58
2023-05-17T14:31:57.534Z,2.33
2023-05-17T14:34:26.276Z,2.20
2023-05-17T14:36:55.093Z,1.67
2023-05-17T14:39:23.736Z,2.28
2023-05-17T14:41:52.353Z,2.30
2023-05-17T14:44:21.134Z,2.90
2023-05-17T14:46:49.761Z,2.20
2023-05-17T14:49:19.913Z,2.95
2023-05-17T14:51:48.654Z,2.58
2023-05-17T14:54:18.093Z,5.35
2023-05-17T14:56:47.203Z,2.38
2023-05-17T14:59:16.129Z,2.13
2023-05-17T15:01:44.902Z,2.50
2023-05-17T15:04:13.748Z,2.30
2023-05-17T15:06:44.454Z,2.40
2023-05-17T15:09:14.289Z,2.53
2023-05-17T15:11:43.062Z,3.65
2023-05-17T15:14:11.923Z,2.90
2023-05-17T15:16:41.071Z,2.40
2023-05-17T15:19:09.854Z,2.25
2023-05-17T15:21:38.558Z,2.15
2023-05-17T15:24:09.784Z,2.38
2023-05-17T15:26:40.018Z,1.98
2023-05-17T15:29:08.660Z,2.03
2023-05-17T15:31:37.301Z,1.95
2023-05-17T15:34:06.153Z,2.20
2023-05-17T15:36:34.857Z,2.08
2023-05-17T15:39:03.720Z,2.20
2023-05-17T15:41:33.759Z,2.28
2023-05-17T15:44:02.441Z,2.08
2023-05-17T15:46:31.195Z,1.70
2023-05-17T15:48:59.893Z,2.10
2023-05-17T15:51:28.520Z,2.10
2023-05-17T15:53:57.304Z,2.15
2023-05-17T15:56:26.032Z,1.85
2023-05-17T15:58:56.062Z,2.13
2023-05-17T16:01:24.727Z,2.17
2023-05-17T16:03:53.342Z,2.25
2023-05-17T16:06:22.156Z,2.33
2023-05-17T16:08:51.085Z,1.88
2023-05-17T16:11:19.773Z,1.80
2023-05-17T16:13:48.342Z,2.78
2023-05-17T16:16:18.378Z,2.15
2023-05-17T16:18:47.251Z,2.47
2023-05-17T16:21:15.982Z,1.88
2023-05-17T16:23:44.591Z,2.10
2023-05-17T16:26:13.216Z,2.25
2023-05-17T16:28:41.873Z,2.20
2023-05-17T16:31:11.231Z,2.38
2023-05-17T16:33:41.511Z,2.88
2023-05-17T16:36:12.373Z,3.00
2023-05-17T16:38:41.085Z,2.50
2023-05-17T16:41:09.824Z,2.10
2023-05-17T16:43:38.461Z,2.80
2023-05-17T16:46:07.101Z,2.38
2023-05-17T16:48:36.183Z,2.10
2023-05-17T16:51:06.670Z,2.13
2023-05-17T16:53:35.334Z,2.20
2023-05-17T16:56:04.005Z,2.38
2023-05-17T16:58:32.595Z,2.08
2023-05-17T17:01:01.445Z,2.10
2023-05-17T17:03:30.237Z,2.03
2023-05-17T17:05:58.912Z,2.08
2023-05-17T17:08:28.984Z,2.55
2023-05-17T17:10:57.771Z,2.70
2023-05-17T17:13:26.624Z,2.30
2023-05-17T17:15:55.339Z,2.50
2023-05-17T17:18:23.990Z,2.22
2023-05-17T17:20:52.733Z,2.20
2023-05-17T17:23:21.910Z,2.67
2023-05-17T17:25:51.854Z,2.50
2023-05-17T17:28:20.514Z,2.15
2023-05-17T17:30:49.151Z,2.33
2023-05-17T17:33:17.819Z,2.42
2023-05-17T17:35:46.516Z,2.47
2023-05-17T17:38:15.147Z,2.10
2023-05-17T17:40:43.885Z,1.90
2023-05-17T17:43:14.138Z,2.58
2023-05-17T17:45:42.772Z,2.25
2023-05-17T17:48:11.551Z,2.35
2023-05-17T17:50:40.255Z,2.08
2023-05-17T17:53:10.664Z,2.45
2023-05-17T17:55:39.360Z,2.50
2023-05-17T17:58:07.937Z,2.28
2023-05-17T18:00:37.898Z,2.17
2023-05-17T18:03:06.724Z,2.60
2023-05-17T18:05:35.470Z,2.20
2023-05-17T18:08:04.480Z,2.78
2023-05-17T18:10:33.322Z,5.07
2023-05-17T18:13:01.869Z,4.90
2023-05-17T18:15:30.584Z,2.50
2023-05-17T18:18:00.596Z,2.35
2023-05-17T18:20:29.366Z,4.97
2023-05-17T18:22:58.125Z,2.60
2023-05-17T18:25:26.736Z,2.45
2023-05-17T18:27:55.368Z,2.10
2023-05-17T18:30:24.822Z,2.33
2023-05-17T18:32:53.532Z,2.10
2023-05-17T18:35:23.608Z,1.98
2023-05-17T18:37:52.198Z,3.10
2023-05-17T18:40:20.984Z,2.63
2023-05-17T18:42:49.573Z,1.90
2023-05-17T18:45:18.369Z,2.10
2023-05-17T18:47:47.054Z,1.80
2023-05-17T18:50:15.757Z,1.70
2023-05-17T18:52:45.856Z,2.10
2023-05-17T18:55:14.857Z,1.73
2023-05-17T18:57:43.481Z,1.98
2023-05-17T19:00:13.088Z,1.98
2023-05-17T19:02:45.984Z,2.35
2023-05-17T19:05:19.424Z,2.30
2023-05-17T19:07:57.591Z,1.90
2023-05-17T19:10:26.516Z,1.98
2023-05-17T19:12:55.158Z,2.45
2023-05-17T19:15:23.891Z,2.00
2023-05-17T19:17:52.580Z,2.60
2023-05-17T19:20:21.421Z,2.67
2023-05-17T19:22:49.998Z,2.50
2023-05-17T19:25:21.137Z,2.50
2023-05-17T19:27:49.886Z,2.35
2023-05-17T19:30:18.509Z,3.40
2023-05-17T19:32:47.161Z,1.73
2023-05-17T19:35:15.766Z,2.22
2023-05-17T19:37:44.383Z,2.08
2023-05-17T19:40:14.836Z,2.22
2023-05-17T19:42:44.789Z,2.20
2023-05-17T19:45:14.465Z,2.30
2023-05-17T19:47:43.862Z,2.25
2023-05-17T19:50:12.888Z,2.20
2023-05-17T19:52:41.630Z,3.10
2023-05-17T19:55:10.355Z,2.10
2023-05-17T19:57:38.936Z,2.58
2023-05-17T20:00:10.859Z,2.42
2023-05-17T20:02:39.571Z,2.65
2023-05-17T20:05:09.009Z,1.77
2023-05-17T20:07:37.957Z,2.25
2023-05-17T20:10:06.947Z,2.58
2023-05-17T20:12:35.635Z,2.30
2023-05-17T20:15:06.002Z,3.45
2023-05-17T20:17:36.119Z,2.80
2023-05-17T20:20:06.166Z,2.13
2023-05-17T20:22:36.166Z,2.60
2023-05-17T20:25:05.087Z,2.30
2023-05-17T20:27:33.761Z,2.40
2023-05-17T20:30:02.472Z,2.55
2023-05-17T20:32:35.266Z,3.22
2023-05-17T20:35:03.872Z,3.03
2023-05-17T20:37:32.433Z,2.30
2023-05-17T20:40:00.981Z,3.00
2023-05-17T20:42:31.170Z,3.10
2023-05-17T20:44:59.738Z,2.38
2023-05-17T20:47:28.997Z,2.83
2023-05-17T20:49:59.777Z,2.67
2023-05-17T20:52:38.782Z,2.28
2023-05-17T20:55:10.366Z,2.78
2023-05-17T20:57:39.079Z,2.45
2023-05-17T21:00:11.496Z,2.30
2023-05-17T21:02:40.345Z,2.88
2023-05-17T21:05:10.937Z,2.13
2023-05-17T21:07:42.030Z,2.30
2023-05-17T21:10:10.971Z,2.63
2023-05-17T21:12:39.709Z,2.75
2023-05-17T21:15:16.690Z,2.83
2023-05-17T21:17:46.112Z,2.60
2023-05-17T21:20:16.193Z,2.70
2023-05-17T21:22:45.900Z,3.03
2023-05-17T21:25:14.520Z,2.60
2023-05-17T21:27:43.274Z,2.63
2023-05-17T21:30:12.493Z,2.85
2023-05-17T21:32:41.111Z,2.63
2023-05-17T21:35:09.924Z,2.90
2023-05-17T21:37:40.203Z,3.08
2023-05-17T21:40:10.312Z,3.15
2023-05-17T21:42:39.147Z,3.35
2023-05-17T21:45:08.901Z,2.85
2023-05-17T21:47:37.666Z,3.00
2023-05-17T21:50:07.718Z,2.78
2023-05-17T21:52:36.538Z,2.60
2023-05-17T21:55:08.387Z,2.80
2023-05-17T21:57:37.288Z,2.58
2023-05-17T22:00:07.871Z,3.35
2023-05-17T22:02:36.869Z,3.42
2023-05-17T22:05:06.080Z,2.75
2023-05-17T22:07:34.722Z,3.15
2023-05-17T22:10:04.026Z,2.58
2023-05-17T22:12:36.132Z,2.88
2023-05-17T22:15:05.288Z,2.90
2023-05-17T22:17:43.136Z,3.33
2023-05-17T22:20:23.553Z,3.10
2023-05-17T22:22:52.478Z,3.15
2023-05-17T22:25:21.153Z,3.22
2023-05-17T22:27:51.069Z,3.72
2023-05-17T22:30:19.837Z,3.53
2023-05-17T22:32:48.585Z,3.10
2023-05-17T22:35:17.202Z,3.08
2023-05-17T22:37:45.866Z,2.95
2023-05-17T22:40:14.743Z,3.05
2023-05-17T22:42:44.859Z,3.20
2023-05-17T22:45:15.377Z,2.88
2023-05-17T22:47:44.019Z,2.85
2023-05-17T22:50:14.446Z,2.95
2023-05-17T22:52:43.082Z,2.72
2023-05-17T22:55:11.868Z,2.80
2023-05-17T22:57:40.440Z,2.90
2023-05-17T23:00:11.248Z,3.58
2023-05-17T23:02:41.331Z,3.45
2023-05-17T23:05:11.242Z,3.50
2023-05-17T23:07:41.424Z,3.40
2023-05-17T23:10:11.592Z,2.95
2023-05-17T23:12:40.371Z,3.25
2023-05-17T23:15:10.566Z,2.83
2023-05-17T23:17:39.796Z,3.40
2023-05-17T23:20:12.056Z,2.83
2023-05-17T23:22:41.046Z,2.75
2023-05-17T23:25:10.529Z,3.10
2023-05-17T23:27:39.120Z,3.55
2023-05-17T23:30:08.953Z,3.38
2023-05-17T23:32:37.577Z,3.30
2023-05-17T23:35:06.881Z,2.95
2023-05-17T23:37:37.591Z,2.63
2023-05-17T23:40:09.408Z,3.08
2023-05-17T23:42:38.272Z,2.50
2023-05-17T23:45:09.313Z,2.95
2023-05-17T23:47:40.665Z,2.75
2023-05-17T23:50:10.790Z,2.97
2023-05-17T23:52:40.850Z,2.80
2023-05-17T23:55:10.239Z,2.90
2023-05-17T23:57:40.050Z,2.70
